sensor_id;sensor_type;location;lat;lon;timestamp;pressure;altitude;pressure_sealevel;temperature;humidity
81822;BME280;72257;52.384;4.882;2024-03-29T00:00:56;58819.19;;;-145.99;100.00
81822;BME280;72257;52.384;4.882;2024-03-29T00:03:21;58839.88;;;-145.99;100.00
81822;BME280;72257;52.384;4.882;2024-03-29T00:05:47;58887.44;;;-145.99;100.00
81822;BME280;72257;52.384;4.882;2024-03-29T00:08:12;58908.13;;;-145.99;100.00
81822;BME280;72257;52.384;4.882;2024-03-29T00:10:37;58951.56;;;-145.99;100.00
81822;BME280;72257;52.384;4.882;2024-03-29T00:13:04;58984.66;;;-145.99;100.00
81822;BME280;72257;52.384;4.882;2024-03-29T00:15:31;59011.53;;;-145.99;100.00
81822;BME280;72257;52.384;4.882;2024-03-29T00:17:56;59030.16;;;-145.99;100.00
81822;BME280;72257;52.384;4.882;2024-03-29T00:20:22;59007.41;;;-145.99;100.00
81822;BME280;72257;52.384;4.882;2024-03-29T00:22:48;59061.19;;;-145.99;100.00
81822;BME280;72257;52.384;4.882;2024-03-29T00:25:13;59098.41;;;-145.99;100.00
81822;BME280;72257;52.384;4.882;2024-03-29T00:27:39;59096.34;;;-145.99;100.00
81822;BME280;72257;52.384;4.882;2024-03-29T00:30:05;59114.97;;;-145.99;100.00
81822;BME280;72257;52.384;4.882;2024-03-29T00:32:30;59150.13;;;-145.99;100.00
81822;BME280;72257;52.384;4.882;2024-03-29T00:34:55;59154.28;;;-145.99;100.00
81822;BME280;72257;52.384;4.882;2024-03-29T00:37:23;59183.22;;;-145.99;100.00
81822;BME280;72257;52.384;4.882;2024-03-29T00:39:48;59183.22;;;-145.99;100.00
81822;BME280;72257;52.384;4.882;2024-03-29T00:42:14;59179.09;;;-145.99;100.00
81822;BME280;72257;52.384;4.882;2024-03-29T00:44:41;59214.25;;;-145.99;100.00
81822;BME280;72257;52.384;4.882;2024-03-29T00:47:06;59160.47;;;-145.99;100.00
81822;BME280;72257;52.384;4.882;2024-03-29T00:49:32;59183.22;;;-145.99;100.00
81822;BME280;72257;52.384;4.882;2024-03-29T00:51:57;59181.16;;;-145.99;100.00
81822;BME280;72257;52.384;4.882;2024-03-29T00:54:23;59137.72;;;-145.99;100.00
81822;BME280;72257;52.384;4.882;2024-03-29T00:56:52;59187.38;;;-145.99;100.00
81822;BME280;72257;52.384;4.882;2024-03-29T00:59:17;59146.00;;;-145.99;100.00
81822;BME280;72257;52.384;4.882;2024-03-29T01:01:43;59203.91;;;-145.99;100.00
81822;BME280;72257;52.384;4.882;2024-03-29T01:04:08;59183.22;;;-145.99;100.00
81822;BME280;72257;52.384;4.882;2024-03-29T01:06:34;59185.31;;;-145.99;100.00
81822;BME280;72257;52.384;4.882;2024-03-29T01:09:03;59183.22;;;-145.99;100.00
81822;BME280;72257;52.384;4.882;2024-03-29T01:11:29;59181.16;;;-145.99;100.00
81822;BME280;72257;52.384;4.882;2024-03-29T01:13:54;59183.22;;;-145.99;100.00
81822;BME280;72257;52.384;4.882;2024-03-29T01:16:20;59265.97;;;-145.99;100.00
81822;BME280;72257;52.384;4.882;2024-03-29T01:18:45;59203.91;;;-145.99;100.00
81822;BME280;72257;52.384;4.882;2024-03-29T01:21:12;59259.78;;;-145.99;100.00
81822;BME280;72257;52.384;4.882;2024-03-29T01:23:37;59261.84;;;-145.99;100.00
81822;BME280;72257;52.384;4.882;2024-03-29T01:26:04;59286.66;;;-145.99;100.00
81822;BME280;72257;52.384;4.882;2024-03-29T01:28:29;59288.72;;;-145.99;100.00
81822;BME280;72257;52.384;4.882;2024-03-29T01:30:55;59315.63;;;-145.99;100.00
81822;BME280;72257;52.384;4.882;2024-03-29T01:33:21;59336.31;;;-145.99;100.00
81822;BME280;72257;52.384;4.882;2024-03-29T01:35:47;59375.63;;;-145.99;100.00
81822;BME280;72257;52.384;4.882;2024-03-29T01:38:12;59359.06;;;-145.99;100.00
81822;BME280;72257;52.384;4.882;2024-03-29T01:40:37;59365.28;;;-145.99;100.00
81822;BME280;72257;52.384;4.882;2024-03-29T01:43:03;59390.09;;;-145.99;100.00
81822;BME280;72257;52.384;4.882;2024-03-29T01:45:29;59369.41;;;-145.99;100.00
81822;BME280;72257;52.384;4.882;2024-03-29T01:47:55;59369.41;;;-145.99;100.00
81822;BME280;72257;52.384;4.882;2024-03-29T01:50:20;59381.81;;;-145.99;100.00
81822;BME280;72257;52.384;4.882;2024-03-29T01:52:46;59388.03;;;-145.99;100.00
81822;BME280;72257;52.384;4.882;2024-03-29T01:55:13;59377.69;;;-145.99;100.00
81822;BME280;72257;52.384;4.882;2024-03-29T01:57:38;59406.66;;;-145.99;100.00
81822;BME280;72257;52.384;4.882;2024-03-29T02:00:06;59348.72;;;-145.99;100.00
81822;BME280;72257;52.384;4.882;2024-03-29T02:02:32;59334.25;;;-145.99;100.00
81822;BME280;72257;52.384;4.882;2024-03-29T02:04:58;59332.16;;;-145.99;100.00
81822;BME280;72257;52.384;4.882;2024-03-29T02:07:26;59365.28;;;-145.99;100.00
81822;BME280;72257;52.384;4.882;2024-03-29T02:09:51;59344.59;;;-145.99;100.00
81822;BME280;72257;52.384;4.882;2024-03-29T02:12:17;59357.00;;;-145.99;100.00
81822;BME280;72257;52.384;4.882;2024-03-29T02:14:42;59381.81;;;-145.99;100.00
81822;BME280;72257;52.384;4.882;2024-03-29T02:17:08;59402.50;;;-145.99;100.00
81822;BME280;72257;52.384;4.882;2024-03-29T02:19:33;59410.78;;;-145.99;100.00
81822;BME280;72257;52.384;4.882;2024-03-29T02:21:59;59445.94;;;-145.99;100.00
81822;BME280;72257;52.384;4.882;2024-03-29T02:24:26;59450.09;;;-145.99;100.00
81822;BME280;72257;52.384;4.882;2024-03-29T02:26:53;59423.19;;;-145.99;100.00
81822;BME280;72257;52.384;4.882;2024-03-29T02:29:19;59431.47;;;-145.99;100.00
81822;BME280;72257;52.384;4.882;2024-03-29T02:31:45;59435.59;;;-145.99;100.00
81822;BME280;72257;52.384;4.882;2024-03-29T02:34:10;59414.91;;;-145.99;100.00
81822;BME280;72257;52.384;4.882;2024-03-29T02:36:35;59390.09;;;-145.99;100.00
81822;BME280;72257;52.384;4.882;2024-03-29T02:39:01;59491.47;;;-145.99;100.00
81822;BME280;72257;52.384;4.882;2024-03-29T02:41:27;59501.81;;;-145.99;100.00
81822;BME280;72257;52.384;4.882;2024-03-29T02:43:55;59481.13;;;-145.99;100.00
81822;BME280;72257;52.384;4.882;2024-03-29T02:46:20;59431.47;;;-145.99;100.00
81822;BME280;72257;52.384;4.882;2024-03-29T02:48:45;59425.25;;;-145.99;100.00
81822;BME280;72257;52.384;4.882;2024-03-29T02:51:11;59398.38;;;-145.99;100.00
81822;BME280;72257;52.384;4.882;2024-03-29T02:53:36;59342.50;;;-145.99;100.00
81822;BME280;72257;52.384;4.882;2024-03-29T02:56:03;59294.94;;;-145.99;100.00
81822;BME280;72257;52.384;4.882;2024-03-29T02:58:28;59237.00;;;-145.99;100.00
81822;BME280;72257;52.384;4.882;2024-03-29T03:00:54;59284.59;;;-145.99;100.00
81822;BME280;72257;52.384;4.882;2024-03-29T03:03:19;59263.91;;;-145.99;100.00
81822;BME280;72257;52.384;4.882;2024-03-29T03:05:44;59265.97;;;-145.99;100.00
81822;BME280;72257;52.384;4.882;2024-03-29T03:08:09;59214.25;;;-145.99;100.00
81822;BME280;72257;52.384;4.882;2024-03-29T03:10:53;59168.75;;;-145.99;100.00
81822;BME280;72257;52.384;4.882;2024-03-29T03:13:24;59162.53;;;-145.99;100.00
81822;BME280;72257;52.384;4.882;2024-03-29T03:15:49;59185.31;;;-145.99;100.00
81822;BME280;72257;52.384;4.882;2024-03-29T03:18:14;59114.97;;;-145.99;100.00
81822;BME280;72257;52.384;4.882;2024-03-29T03:20:40;59086.00;;;-145.99;100.00
81822;BME280;72257;52.384;4.882;2024-03-29T03:23:05;59067.41;;;-145.99;100.00
81822;BME280;72257;52.384;4.882;2024-03-29T03:25:30;59001.19;;;-145.99;100.00
81822;BME280;72257;52.384;4.882;2024-03-29T03:27:56;59005.34;;;-145.99;100.00
81822;BME280;72257;52.384;4.882;2024-03-29T03:30:21;58949.50;;;-145.99;100.00
81822;BME280;72257;52.384;4.882;2024-03-29T03:32:47;58955.69;;;-145.99;100.00
81822;BME280;72257;52.384;4.882;2024-03-29T03:35:13;58930.88;;;-145.99;100.00
81822;BME280;72257;52.384;4.882;2024-03-29T03:37:38;58852.28;;;-145.99;100.00
81822;BME280;72257;52.384;4.882;2024-03-29T03:40:05;58827.44;;;-145.99;100.00
81822;BME280;72257;52.384;4.882;2024-03-29T03:42:31;58835.72;;;-145.99;100.00
81822;BME280;72257;52.384;4.882;2024-03-29T03:44:56;58786.09;;;-145.99;100.00
81822;BME280;72257;52.384;4.882;2024-03-29T03:47:21;58779.88;;;-145.99;100.00
81822;BME280;72257;52.384;4.882;2024-03-29T03:49:47;58740.59;;;-145.99;100.00
81822;BME280;72257;52.384;4.882;2024-03-29T03:52:12;58713.69;;;-145.99;100.00
81822;BME280;72257;52.384;4.882;2024-03-29T03:54:37;58717.84;;;-145.99;100.00
81822;BME280;72257;52.384;4.882;2024-03-29T03:57:04;58719.91;;;-145.99;100.00
81822;BME280;72257;52.384;4.882;2024-03-29T03:59:29;58699.22;;;-145.99;100.00
81822;BME280;72257;52.384;4.882;2024-03-29T04:01:54;58705.41;;;-145.99;100.00
81822;BME280;72257;52.384;4.882;2024-03-29T04:04:20;58697.16;;;-145.99;100.00
81822;BME280;72257;52.384;4.882;2024-03-29T04:06:45;58697.16;;;-145.99;100.00
81822;BME280;72257;52.384;4.882;2024-03-29T04:09:11;58693.00;;;-145.99;100.00
81822;BME280;72257;52.384;4.882;2024-03-29T04:11:39;58721.97;;;-145.99;100.00
81822;BME280;72257;52.384;4.882;2024-03-29T04:14:04;58746.78;;;-145.99;100.00
81822;BME280;72257;52.384;4.882;2024-03-29T04:16:29;58812.97;;;-145.99;100.00
81822;BME280;72257;52.384;4.882;2024-03-29T04:18:55;58844.00;;;-145.99;100.00
81822;BME280;72257;52.384;4.882;2024-03-29T04:21:20;58903.97;;;-145.99;100.00
81822;BME280;72257;52.384;4.882;2024-03-29T04:23:45;58891.56;;;-145.99;100.00
81822;BME280;72257;52.384;4.882;2024-03-29T04:26:10;58963.97;;;-145.99;100.00
81822;BME280;72257;52.384;4.882;2024-03-29T04:28:36;58990.84;;;-145.99;100.00
81822;BME280;72257;52.384;4.882;2024-03-29T04:31:02;58990.84;;;-145.99;100.00
81822;BME280;72257;52.384;4.882;2024-03-29T04:33:27;59046.72;;;-145.99;100.00
81822;BME280;72257;52.384;4.882;2024-03-29T04:38:26;59075.66;;;-145.99;100.00
81822;BME280;72257;52.384;4.882;2024-03-29T04:40:53;59135.66;;;-145.99;100.00
81822;BME280;72257;52.384;4.882;2024-03-29T04:43:22;59114.97;;;-145.99;100.00
81822;BME280;72257;52.384;4.882;2024-03-29T04:45:48;59141.88;;;-145.99;100.00
81822;BME280;72257;52.384;4.882;2024-03-29T04:48:13;59179.09;;;-145.99;100.00
81822;BME280;72257;52.384;4.882;2024-03-29T04:50:39;59154.28;;;-145.99;100.00
81822;BME280;72257;52.384;4.882;2024-03-29T04:53:04;59181.16;;;-145.99;100.00
81822;BME280;72257;52.384;4.882;2024-03-29T04:55:30;59183.22;;;-145.99;100.00
81822;BME280;72257;52.384;4.882;2024-03-29T04:57:56;59160.47;;;-145.99;100.00
81822;BME280;72257;52.384;4.882;2024-03-29T05:00:21;59172.88;;;-145.99;100.00
81822;BME280;72257;52.384;4.882;2024-03-29T05:02:46;59168.75;;;-145.99;100.00
81822;BME280;72257;52.384;4.882;2024-03-29T05:05:12;59156.34;;;-145.99;100.00
81822;BME280;72257;52.384;4.882;2024-03-29T05:07:37;59170.81;;;-145.99;100.00
81822;BME280;72257;52.384;4.882;2024-03-29T05:10:03;59158.41;;;-145.99;100.00
81822;BME280;72257;52.384;4.882;2024-03-29T05:12:32;59092.22;;;-145.99;100.00
81822;BME280;72257;52.384;4.882;2024-03-29T05:14:58;59088.06;;;-145.99;100.00
81822;BME280;72257;52.384;4.882;2024-03-29T05:17:24;59032.22;;;-145.99;100.00
81822;BME280;72257;52.384;4.882;2024-03-29T05:19:55;59032.22;;;-145.99;100.00
81822;BME280;72257;52.384;4.882;2024-03-29T05:22:21;58988.78;;;-145.99;100.00
81822;BME280;72257;52.384;4.882;2024-03-29T05:24:46;58972.25;;;-145.99;100.00
81822;BME280;72257;52.384;4.882;2024-03-29T05:27:12;59046.72;;;-145.99;100.00
81822;BME280;72257;52.384;4.882;2024-03-29T05:29:38;59046.72;;;-145.99;100.00
81822;BME280;72257;52.384;4.882;2024-03-29T05:32:04;59108.75;;;-145.99;100.00
81822;BME280;72257;52.384;4.882;2024-03-29T05:34:29;59129.44;;;-145.99;100.00
81822;BME280;72257;52.384;4.882;2024-03-29T05:36:55;59216.31;;;-145.99;100.00
81822;BME280;72257;52.384;4.882;2024-03-29T05:39:20;59261.84;;;-145.99;100.00
81822;BME280;72257;52.384;4.882;2024-03-29T05:41:45;59270.13;;;-145.99;100.00
81822;BME280;72257;52.384;4.882;2024-03-29T05:44:11;59357.00;;;-145.99;100.00
81822;BME280;72257;52.384;4.882;2024-03-29T05:46:36;59406.66;;;-145.99;100.00
81822;BME280;72257;52.384;4.882;2024-03-29T05:49:02;59520.41;;;-145.99;100.00
81822;BME280;72257;52.384;4.882;2024-03-29T05:51:28;59596.97;;;-145.99;100.00
81822;BME280;72257;52.384;4.882;2024-03-29T05:53:53;59750.06;;;-145.99;100.00
81822;BME280;72257;52.384;4.882;2024-03-29T05:56:18;59853.50;;;-145.99;100.00
81822;BME280;72257;52.384;4.882;2024-03-29T05:58:44;59956.94;;;-145.99;100.00
81822;BME280;72257;52.384;4.882;2024-03-29T06:01:10;60143.16;;;-145.99;100.00
81822;BME280;72257;52.384;4.882;2024-03-29T06:03:35;60273.50;;;-145.99;100.00
81822;BME280;72257;52.384;4.882;2024-03-29T06:06:01;60343.88;;;-145.99;100.00
81822;BME280;72257;52.384;4.882;2024-03-29T06:08:26;60439.06;;;-145.99;100.00
81822;BME280;72257;52.384;4.882;2024-03-29T06:10:52;60447.31;;;-145.99;100.00
81822;BME280;72257;52.384;4.882;2024-03-29T06:13:18;60408.00;;;-145.99;100.00
81822;BME280;72257;52.384;4.882;2024-03-29T06:15:55;60234.19;;;-145.99;100.00
81822;BME280;72257;52.384;4.882;2024-03-29T06:18:39;60159.72;;;-145.99;100.00
81822;BME280;72257;52.384;4.882;2024-03-29T06:21:04;60114.19;;;-145.99;100.00
81822;BME280;72257;52.384;4.882;2024-03-29T06:23:30;60095.56;;;-145.99;100.00
81822;BME280;72257;52.384;4.882;2024-03-29T06:25:55;60095.56;;;-145.99;100.00
81822;BME280;72257;52.384;4.882;2024-03-29T06:28:21;60052.13;;;-145.99;100.00
81822;BME280;72257;52.384;4.882;2024-03-29T06:30:46;60043.84;;;-145.99;100.00
81822;BME280;72257;52.384;4.882;2024-03-29T06:33:11;59994.19;;;-145.99;100.00
81822;BME280;72257;52.384;4.882;2024-03-29T06:35:37;60031.44;;;-145.99;100.00
81822;BME280;72257;52.384;4.882;2024-03-29T06:38:02;59998.31;;;-145.99;100.00
81822;BME280;72257;52.384;4.882;2024-03-29T06:40:28;60025.22;;;-145.99;100.00
81822;BME280;72257;52.384;4.882;2024-03-29T06:42:53;59992.13;;;-145.99;100.00
81822;BME280;72257;52.384;4.882;2024-03-29T06:45:21;59994.19;;;-145.99;100.00
81822;BME280;72257;52.384;4.882;2024-03-29T06:49:46;60033.50;;;-145.99;100.00
81822;BME280;72257;52.384;4.882;2024-03-29T06:52:11;60064.53;;;-145.99;100.00
81822;BME280;72257;52.384;4.882;2024-03-29T06:54:37;60021.09;;;-145.99;100.00
81822;BME280;72257;52.384;4.882;2024-03-29T06:57:02;60064.53;;;-145.99;100.00
81822;BME280;72257;52.384;4.882;2024-03-29T06:59:28;60130.75;;;-145.99;100.00
81822;BME280;72257;52.384;4.882;2024-03-29T07:01:53;60085.22;;;-145.99;100.00
81822;BME280;72257;52.384;4.882;2024-03-29T07:04:20;60116.25;;;-145.99;100.00
81822;BME280;72257;52.384;4.882;2024-03-29T07:06:46;60116.25;;;-145.99;100.00
81822;BME280;72257;52.384;4.882;2024-03-29T07:09:22;60163.84;;;-145.99;100.00
81822;BME280;72257;52.384;4.882;2024-03-29T07:11:49;60238.34;;;-145.99;100.00
81822;BME280;72257;52.384;4.882;2024-03-29T07:14:16;60265.25;;;-145.99;100.00
81822;BME280;72257;52.384;4.882;2024-03-29T07:16:42;60296.28;;;-145.99;100.00
81822;BME280;72257;52.384;4.882;2024-03-29T07:19:08;60261.09;;;-145.99;100.00
81822;BME280;72257;52.384;4.882;2024-03-29T07:21:33;60294.22;;;-145.99;100.00
81822;BME280;72257;52.384;4.882;2024-03-29T07:23:59;60389.38;;;-145.99;100.00
81822;BME280;72257;52.384;4.882;2024-03-29T07:26:25;60418.34;;;-145.99;100.00
81822;BME280;72257;52.384;4.882;2024-03-29T07:28:50;60354.22;;;-145.99;100.00
81822;BME280;72257;52.384;4.882;2024-03-29T07:31:16;60430.78;;;-145.99;100.00
81822;BME280;72257;52.384;4.882;2024-03-29T07:33:41;60341.78;;;-145.99;100.00
81822;BME280;72257;52.384;4.882;2024-03-29T07:36:07;60432.84;;;-145.99;100.00
81822;BME280;72257;52.384;4.882;2024-03-29T07:38:35;60370.75;;;-145.99;100.00
81822;BME280;72257;52.384;4.882;2024-03-29T07:41:00;60339.72;;;-145.99;100.00
81822;BME280;72257;52.384;4.882;2024-03-29T07:43:25;60333.53;;;-145.99;100.00
81822;BME280;72257;52.384;4.882;2024-03-29T07:45:51;60381.13;;;-145.99;100.00
81822;BME280;72257;52.384;4.882;2024-03-29T07:48:17;60368.69;;;-145.99;100.00
81822;BME280;72257;52.384;4.882;2024-03-29T07:50:44;60484.56;;;-145.99;100.00
81822;BME280;72257;52.384;4.882;2024-03-29T07:53:10;60468.03;;;-145.99;100.00
81822;BME280;72257;52.384;4.882;2024-03-29T07:55:38;60362.50;;;-145.99;100.00
81822;BME280;72257;52.384;4.882;2024-03-29T07:58:03;60209.38;;;-145.99;100.00
81822;BME280;72257;52.384;4.882;2024-03-29T08:00:32;60290.06;;;-145.99;100.00
81822;BME280;72257;52.384;4.882;2024-03-29T08:02:57;60379.03;;;-145.99;100.00
81822;BME280;72257;52.384;4.882;2024-03-29T08:05:24;60180.41;;;-145.99;100.00
81822;BME280;72257;52.384;4.882;2024-03-29T08:07:49;60203.16;;;-145.99;100.00
81822;BME280;72257;52.384;4.882;2024-03-29T08:10:14;60157.66;;;-145.99;100.00
81822;BME280;72257;52.384;4.882;2024-03-29T08:12:40;60151.44;;;-145.99;100.00
81822;BME280;72257;52.384;4.882;2024-03-29T08:15:06;60139.03;;;-145.99;100.00
81822;BME280;72257;52.384;4.882;2024-03-29T08:17:32;60147.31;;;-145.99;100.00
81822;BME280;72257;52.384;4.882;2024-03-29T08:19:58;60153.50;;;-145.99;100.00
81822;BME280;72257;52.384;4.882;2024-03-29T08:22:23;60143.16;;;-145.99;100.00
81822;BME280;72257;52.384;4.882;2024-03-29T08:24:48;60066.59;;;-145.99;100.00
81822;BME280;72257;52.384;4.882;2024-03-29T08:27:14;59994.19;;;-145.99;100.00
81822;BME280;72257;52.384;4.882;2024-03-29T08:29:42;59890.75;;;-145.99;100.00
81822;BME280;72257;52.384;4.882;2024-03-29T08:32:07;59890.75;;;-145.99;100.00
81822;BME280;72257;52.384;4.882;2024-03-29T08:34:34;59921.78;;;-145.99;100.00
81822;BME280;72257;52.384;4.882;2024-03-29T08:37:03;59975.56;;;-145.99;100.00
81822;BME280;72257;52.384;4.882;2024-03-29T08:39:29;59836.94;;;-145.99;100.00
81822;BME280;72257;52.384;4.882;2024-03-29T08:41:55;59927.97;;;-145.99;100.00
81822;BME280;72257;52.384;4.882;2024-03-29T08:44:20;59998.31;;;-145.99;100.00
81822;BME280;72257;52.384;4.882;2024-03-29T08:46:46;59985.91;;;-145.99;100.00
81822;BME280;72257;52.384;4.882;2024-03-29T08:49:11;60116.25;;;-145.99;100.00
81822;BME280;72257;52.384;4.882;2024-03-29T08:51:37;60041.78;;;-145.99;100.00
81822;BME280;72257;52.384;4.882;2024-03-29T08:54:02;60010.75;;;-145.99;100.00
81822;BME280;72257;52.384;4.882;2024-03-29T08:56:31;59911.44;;;-145.99;100.00
81822;BME280;72257;52.384;4.882;2024-03-29T08:58:56;59834.88;;;-145.99;100.00
81822;BME280;72257;52.384;4.882;2024-03-29T09:01:23;59969.38;;;-145.99;100.00
81822;BME280;72257;52.384;4.882;2024-03-29T09:03:49;59890.75;;;-145.99;100.00
81822;BME280;72257;52.384;4.882;2024-03-29T09:06:14;59723.16;;;-145.99;100.00
81822;BME280;72257;52.384;4.882;2024-03-29T09:08:41;59630.06;;;-145.99;100.00
81822;BME280;72257;52.384;4.882;2024-03-29T09:11:06;59599.03;;;-145.99;100.00
81822;BME280;72257;52.384;4.882;2024-03-29T09:13:31;59470.78;;;-145.99;100.00
81822;BME280;72257;52.384;4.882;2024-03-29T09:15:57;59392.16;;;-145.99;100.00
81822;BME280;72257;52.384;4.882;2024-03-29T09:18:22;59307.34;;;-145.99;100.00
81822;BME280;72257;52.384;4.882;2024-03-29T09:21:01;59332.16;;;-145.99;100.00
81822;BME280;72257;52.384;4.882;2024-03-29T09:23:27;59263.91;;;-145.99;100.00
81822;BME280;72257;52.384;4.882;2024-03-29T09:25:54;59237.00;;;-145.99;100.00
81822;BME280;72257;52.384;4.882;2024-03-29T09:28:20;59201.84;;;-145.99;100.00
81822;BME280;72257;52.384;4.882;2024-03-29T09:30:47;59265.97;;;-145.99;100.00
81822;BME280;72257;52.384;4.882;2024-03-29T09:33:12;59402.50;;;-145.99;100.00
81822;BME280;72257;52.384;4.882;2024-03-29T09:35:38;59530.75;;;-145.99;100.00
81822;BME280;72257;52.384;4.882;2024-03-29T09:38:03;59654.91;;;-145.99;100.00
81822;BME280;72257;52.384;4.882;2024-03-29T09:40:29;59491.47;;;-145.99;100.00
81822;BME280;72257;52.384;4.882;2024-03-29T09:42:56;59332.16;;;-145.99;100.00
81822;BME280;72257;52.384;4.882;2024-03-29T09:45:29;59224.59;;;-145.99;100.00
81822;BME280;72257;52.384;4.882;2024-03-29T09:47:58;59057.06;;;-145.99;100.00
81822;BME280;72257;52.384;4.882;2024-03-29T09:50:25;58935.00;;;-145.99;100.00
81822;BME280;72257;52.384;4.882;2024-03-29T09:52:50;58937.06;;;-145.99;100.00
81822;BME280;72257;52.384;4.882;2024-03-29T09:55:18;58887.44;;;-145.99;100.00
81822;BME280;72257;52.384;4.882;2024-03-29T09:57:45;58968.09;;;-145.99;100.00
81822;BME280;72257;52.384;4.882;2024-03-29T10:00:11;58895.72;;;-145.99;100.00
81822;BME280;72257;52.384;4.882;2024-03-29T10:02:37;58885.38;;;-145.99;100.00
81822;BME280;72257;52.384;4.882;2024-03-29T10:05:04;58846.06;;;-145.99;100.00
81822;BME280;72257;52.384;4.882;2024-03-29T10:07:32;58808.84;;;-145.99;100.00
81822;BME280;72257;52.384;4.882;2024-03-29T10:10:00;58794.34;;;-145.99;100.00
81822;BME280;72257;52.384;4.882;2024-03-29T10:12:27;58829.53;;;-145.99;100.00
81822;BME280;72257;52.384;4.882;2024-03-29T10:14:52;58887.44;;;-145.99;100.00
81822;BME280;72257;52.384;4.882;2024-03-29T10:17:20;58870.88;;;-145.99;100.00
81822;BME280;72257;52.384;4.882;2024-03-29T10:19:46;58856.41;;;-145.99;100.00
81822;BME280;72257;52.384;4.882;2024-03-29T10:22:12;58792.28;;;-145.99;100.00
81822;BME280;72257;52.384;4.882;2024-03-29T10:24:38;58841.94;;;-145.99;100.00
81822;BME280;72257;52.384;4.882;2024-03-29T10:27:04;58844.00;;;-145.99;100.00
81822;BME280;72257;52.384;4.882;2024-03-29T10:29:29;58827.44;;;-145.99;100.00
81822;BME280;72257;52.384;4.882;2024-03-29T10:31:55;58802.63;;;-145.99;100.00
81822;BME280;72257;52.384;4.882;2024-03-29T10:34:21;58753.00;;;-145.99;100.00
81822;BME280;72257;52.384;4.882;2024-03-29T10:36:47;58738.50;;;-145.99;100.00
81822;BME280;72257;52.384;4.882;2024-03-29T10:39:15;58717.84;;;-145.99;100.00
81822;BME280;72257;52.384;4.882;2024-03-29T10:41:41;58690.94;;;-145.99;100.00
81822;BME280;72257;52.384;4.882;2024-03-29T10:44:10;58662.00;;;-145.99;100.00
81822;BME280;72257;52.384;4.882;2024-03-29T10:46:40;58686.81;;;-145.99;100.00
81822;BME280;72257;52.384;4.882;2024-03-29T10:49:08;58693.00;;;-145.99;100.00
81822;BME280;72257;52.384;4.882;2024-03-29T10:51:39;58643.38;;;-145.99;100.00
81822;BME280;72257;52.384;4.882;2024-03-29T10:54:12;58645.44;;;-145.99;100.00
81822;BME280;72257;52.384;4.882;2024-03-29T10:56:38;58659.91;;;-145.99;100.00
81822;BME280;72257;52.384;4.882;2024-03-29T10:59:21;58653.72;;;-145.99;100.00
81822;BME280;72257;52.384;4.882;2024-03-29T11:01:52;58682.66;;;-145.99;100.00
81822;BME280;72257;52.384;4.882;2024-03-29T11:04:22;58781.94;;;-145.99;100.00
81822;BME280;72257;52.384;4.882;2024-03-29T11:06:54;58808.84;;;-145.99;100.00
81822;BME280;72257;52.384;4.882;2024-03-29T11:09:27;58800.56;;;-145.99;100.00
81822;BME280;72257;52.384;4.882;2024-03-29T11:11:55;58790.22;;;-145.99;100.00
81822;BME280;72257;52.384;4.882;2024-03-29T11:14:31;58711.63;;;-145.99;100.00
81822;BME280;72257;52.384;4.882;2024-03-29T11:17:01;58647.50;;;-145.99;100.00
81822;BME280;72257;52.384;4.882;2024-03-29T11:19:26;58635.09;;;-145.99;100.00
81822;BME280;72257;52.384;4.882;2024-03-29T11:21:52;58573.06;;;-145.99;100.00
81822;BME280;72257;52.384;4.882;2024-03-29T11:24:18;58539.97;;;-145.99;100.00
81822;BME280;72257;52.384;4.882;2024-03-29T11:26:45;58533.75;;;-145.99;100.00
81822;BME280;72257;52.384;4.882;2024-03-29T11:29:22;58537.88;;;-145.99;100.00
81822;BME280;72257;52.384;4.882;2024-03-29T11:31:48;58504.81;;;-145.99;100.00
81822;BME280;72257;52.384;4.882;2024-03-29T11:34:19;58484.13;;;-145.99;100.00
81822;BME280;72257;52.384;4.882;2024-03-29T11:36:45;58515.16;;;-145.99;100.00
81822;BME280;72257;52.384;4.882;2024-03-29T11:39:20;58471.72;;;-145.99;100.00
81822;BME280;72257;52.384;4.882;2024-03-29T11:41:47;58451.03;;;-145.99;100.00
81822;BME280;72257;52.384;4.882;2024-03-29T11:44:13;58484.13;;;-145.99;100.00
81822;BME280;72257;52.384;4.882;2024-03-29T11:46:39;58479.97;;;-145.99;100.00
81822;BME280;72257;52.384;4.882;2024-03-29T11:49:05;58432.41;;;-145.99;100.00
81822;BME280;72257;52.384;4.882;2024-03-29T11:51:31;58422.06;;;-145.99;100.00
81822;BME280;72257;52.384;4.882;2024-03-29T11:53:57;58430.34;;;-145.99;100.00
81822;BME280;72257;52.384;4.882;2024-03-29T11:56:22;58405.53;;;-145.99;100.00
81822;BME280;72257;52.384;4.882;2024-03-29T11:58:48;58417.94;;;-145.99;100.00
81822;BME280;72257;52.384;4.882;2024-03-29T12:01:14;58391.06;;;-145.99;100.00
81822;BME280;72257;52.384;4.882;2024-03-29T12:03:41;58386.91;;;-145.99;100.00
81822;BME280;72257;52.384;4.882;2024-03-29T12:06:07;58366.22;;;-145.99;100.00
81822;BME280;72257;52.384;4.882;2024-03-29T12:08:38;58393.13;;;-145.99;100.00
81822;BME280;72257;52.384;4.882;2024-03-29T12:11:05;58391.06;;;-145.99;100.00
81822;BME280;72257;52.384;4.882;2024-03-29T12:13:31;58388.97;;;-145.99;100.00
81822;BME280;72257;52.384;4.882;2024-03-29T12:15:57;58384.84;;;-145.99;100.00
81822;BME280;72257;52.384;4.882;2024-03-29T12:18:24;58376.56;;;-145.99;100.00
81822;BME280;72257;52.384;4.882;2024-03-29T12:20:51;58370.38;;;-145.99;100.00
81822;BME280;72257;52.384;4.882;2024-03-29T12:23:18;58351.75;;;-145.99;100.00
81822;BME280;72257;52.384;4.882;2024-03-29T12:25:44;58374.50;;;-145.99;100.00
81822;BME280;72257;52.384;4.882;2024-03-29T12:28:11;58384.84;;;-145.99;100.00
81822;BME280;72257;52.384;4.882;2024-03-29T12:30:37;58393.13;;;-145.99;100.00